sensor_id;sensor_type;location;lat;lon;timestamp;P1;durP1;ratioP1;P2;durP2;ratioP2
19883;SDS011;10104;50.732;10.174;2022-08-18T00:01:42;5.85;;;5.28;;
19883;SDS011;10104;50.732;10.174;2022-08-18T00:04:07;5.10;;;4.57;;
19883;SDS011;10104;50.732;10.174;2022-08-18T00:06:49;5.53;;;5.00;;
19883;SDS011;10104;50.732;10.174;2022-08-18T00:09:10;5.75;;;5.20;;
19883;SDS011;10104;50.732;10.174;2022-08-18T00:11:33;9.07;;;5.30;;
19883;SDS011;10104;50.732;10.174;2022-08-18T00:14:02;9.63;;;5.43;;
19883;SDS011;10104;50.732;10.174;2022-08-18T00:16:23;8.98;;;6.38;;
19883;SDS011;10104;50.732;10.174;2022-08-18T00:18:45;6.97;;;5.60;;
19883;SDS011;10104;50.732;10.174;2022-08-18T00:21:06;6.05;;;5.28;;
19883;SDS011;10104;50.732;10.174;2022-08-18T00:23:28;6.05;;;5.20;;
19883;SDS011;10104;50.732;10.174;2022-08-18T00:25:53;7.90;;;4.78;;
19883;SDS011;10104;50.732;10.174;2022-08-18T00:28:15;5.68;;;4.88;;
19883;SDS011;10104;50.732;10.174;2022-08-18T00:30:36;5.80;;;5.18;;
19883;SDS011;10104;50.732;10.174;2022-08-18T00:32:58;6.82;;;5.13;;
19883;SDS011;10104;50.732;10.174;2022-08-18T00:35:34;5.63;;;5.03;;
19883;SDS011;10104;50.732;10.174;2022-08-18T00:37:58;5.50;;;5.00;;
19883;SDS011;10104;50.732;10.174;2022-08-18T00:40:22;7.03;;;4.57;;
19883;SDS011;10104;50.732;10.174;2022-08-18T00:42:59;5.93;;;5.28;;
19883;SDS011;10104;50.732;10.174;2022-08-18T00:45:25;6.00;;;4.75;;
19883;SDS011;10104;50.732;10.174;2022-08-18T00:47:53;7.43;;;5.13;;
19883;SDS011;10104;50.732;10.174;2022-08-18T00:50:17;6.88;;;4.85;;
19883;SDS011;10104;50.732;10.174;2022-08-18T00:52:44;8.52;;;5.85;;
19883;SDS011;10104;50.732;10.174;2022-08-18T00:55:12;6.13;;;5.07;;
19883;SDS011;10104;50.732;10.174;2022-08-18T00:57:35;7.65;;;5.57;;
19883;SDS011;10104;50.732;10.174;2022-08-18T00:59:58;9.30;;;5.40;;
19883;SDS011;10104;50.732;10.174;2022-08-18T01:02:31;7.88;;;5.03;;
19883;SDS011;10104;50.732;10.174;2022-08-18T01:04:59;5.00;;;4.50;;
19883;SDS011;10104;50.732;10.174;2022-08-18T01:07:31;7.82;;;5.20;;
19883;SDS011;10104;50.732;10.174;2022-08-18T01:09:56;10.40;;;5.20;;
19883;SDS011;10104;50.732;10.174;2022-08-18T01:12:19;7.00;;;5.15;;
19883;SDS011;10104;50.732;10.174;2022-08-18T01:15:01;6.53;;;5.85;;
19883;SDS011;10104;50.732;10.174;2022-08-18T01:17:23;7.15;;;5.30;;
19883;SDS011;10104;50.732;10.174;2022-08-18T01:20:04;8.68;;;5.78;;
19883;SDS011;10104;50.732;10.174;2022-08-18T01:25:09;7.40;;;5.28;;
19883;SDS011;10104;50.732;10.174;2022-08-18T01:27:49;8.32;;;5.38;;
19883;SDS011;10104;50.732;10.174;2022-08-18T01:30:13;6.55;;;4.80;;
19883;SDS011;10104;50.732;10.174;2022-08-18T01:32:37;7.93;;;5.28;;
19883;SDS011;10104;50.732;10.174;2022-08-18T01:35:00;6.32;;;5.35;;
19883;SDS011;10104;50.732;10.174;2022-08-18T01:37:23;7.53;;;6.15;;
19883;SDS011;10104;50.732;10.174;2022-08-18T01:39:45;6.15;;;5.38;;
19883;SDS011;10104;50.732;10.174;2022-08-18T01:42:27;6.53;;;5.45;;
19883;SDS011;10104;50.732;10.174;2022-08-18T01:44:49;5.70;;;5.20;;
19883;SDS011;10104;50.732;10.174;2022-08-18T01:47:11;5.88;;;5.35;;
19883;SDS011;10104;50.732;10.174;2022-08-18T01:49:33;6.82;;;5.35;;
19883;SDS011;10104;50.732;10.174;2022-08-18T01:51:54;9.80;;;5.75;;
19883;SDS011;10104;50.732;10.174;2022-08-18T01:54:16;6.65;;;6.05;;
19883;SDS011;10104;50.732;10.174;2022-08-18T01:56:38;8.63;;;6.55;;
19883;SDS011;10104;50.732;10.174;2022-08-18T01:59:01;7.80;;;6.43;;
19883;SDS011;10104;50.732;10.174;2022-08-18T02:01:23;9.32;;;6.50;;
19883;SDS011;10104;50.732;10.174;2022-08-18T02:03:57;6.80;;;6.20;;
19883;SDS011;10104;50.732;10.174;2022-08-18T02:06:40;8.38;;;6.43;;
19883;SDS011;10104;50.732;10.174;2022-08-18T02:09:08;7.78;;;6.85;;
19883;SDS011;10104;50.732;10.174;2022-08-18T02:11:29;9.50;;;6.78;;
19883;SDS011;10104;50.732;10.174;2022-08-18T02:13:51;7.00;;;6.40;;
19883;SDS011;10104;50.732;10.174;2022-08-18T02:16:13;10.63;;;6.30;;
19883;SDS011;10104;50.732;10.174;2022-08-18T02:18:35;6.70;;;6.10;;
19883;SDS011;10104;50.732;10.174;2022-08-18T02:21:12;7.32;;;6.63;;
19883;SDS011;10104;50.732;10.174;2022-08-18T02:23:40;9.70;;;6.22;;
19883;SDS011;10104;50.732;10.174;2022-08-18T02:26:14;6.50;;;5.90;;
19883;SDS011;10104;50.732;10.174;2022-08-18T02:28:38;7.20;;;5.93;;
19883;SDS011;10104;50.732;10.174;2022-08-18T02:31:04;8.27;;;6.60;;
19883;SDS011;10104;50.732;10.174;2022-08-18T02:33:31;9.85;;;7.47;;
19883;SDS011;10104;50.732;10.174;2022-08-18T02:35:54;6.93;;;6.18;;
19883;SDS011;10104;50.732;10.174;2022-08-18T02:38:15;7.07;;;6.38;;
19883;SDS011;10104;50.732;10.174;2022-08-18T02:40:37;8.23;;;6.75;;
19883;SDS011;10104;50.732;10.174;2022-08-18T02:43:04;6.57;;;6.03;;
19883;SDS011;10104;50.732;10.174;2022-08-18T02:45:27;7.25;;;6.53;;
19883;SDS011;10104;50.732;10.174;2022-08-18T02:47:52;7.63;;;6.35;;
19883;SDS011;10104;50.732;10.174;2022-08-18T02:50:14;6.28;;;5.38;;
19883;SDS011;10104;50.732;10.174;2022-08-18T02:52:37;9.63;;;7.00;;
19883;SDS011;10104;50.732;10.174;2022-08-18T02:55:00;7.82;;;6.60;;
19883;SDS011;10104;50.732;10.174;2022-08-18T02:57:22;7.97;;;6.68;;
19883;SDS011;10104;50.732;10.174;2022-08-18T02:59:44;10.55;;;6.32;;
19883;SDS011;10104;50.732;10.174;2022-08-18T03:02:08;7.20;;;6.10;;
19883;SDS011;10104;50.732;10.174;2022-08-18T03:04:30;7.22;;;6.53;;
19883;SDS011;10104;50.732;10.174;2022-08-18T03:06:53;7.63;;;6.82;;
19883;SDS011;10104;50.732;10.174;2022-08-18T03:09:15;7.00;;;6.28;;
19883;SDS011;10104;50.732;10.174;2022-08-18T03:11:38;7.60;;;6.43;;
19883;SDS011;10104;50.732;10.174;2022-08-18T03:14:03;9.98;;;6.75;;
19883;SDS011;10104;50.732;10.174;2022-08-18T03:16:25;9.80;;;6.47;;
19883;SDS011;10104;50.732;10.174;2022-08-18T03:18:51;8.02;;;6.60;;
19883;SDS011;10104;50.732;10.174;2022-08-18T03:21:15;6.82;;;6.22;;
19883;SDS011;10104;50.732;10.174;2022-08-18T03:23:44;9.65;;;7.00;;
19883;SDS011;10104;50.732;10.174;2022-08-18T03:26:21;7.68;;;6.90;;
19883;SDS011;10104;50.732;10.174;2022-08-18T03:28:45;7.95;;;6.53;;
19883;SDS011;10104;50.732;10.174;2022-08-18T03:31:09;8.10;;;6.20;;
19883;SDS011;10104;50.732;10.174;2022-08-18T03:33:32;7.45;;;6.75;;
19883;SDS011;10104;50.732;10.174;2022-08-18T03:35:53;8.25;;;7.45;;
19883;SDS011;10104;50.732;10.174;2022-08-18T03:38:15;8.18;;;7.25;;
19883;SDS011;10104;50.732;10.174;2022-08-18T03:40:37;7.60;;;6.85;;
19883;SDS011;10104;50.732;10.174;2022-08-18T03:43:00;8.10;;;7.30;;
19883;SDS011;10104;50.732;10.174;2022-08-18T03:45:46;8.23;;;7.10;;
19883;SDS011;10104;50.732;10.174;2022-08-18T03:48:07;10.30;;;7.15;;
19883;SDS011;10104;50.732;10.174;2022-08-18T03:50:31;7.90;;;7.15;;
19883;SDS011;10104;50.732;10.174;2022-08-18T03:52:52;12.43;;;6.95;;
19883;SDS011;10104;50.732;10.174;2022-08-18T03:55:14;7.53;;;6.18;;
19883;SDS011;10104;50.732;10.174;2022-08-18T03:57:36;8.35;;;6.68;;
19883;SDS011;10104;50.732;10.174;2022-08-18T03:59:59;7.68;;;6.47;;
19883;SDS011;10104;50.732;10.174;2022-08-18T04:02:22;8.07;;;6.97;;
19883;SDS011;10104;50.732;10.174;2022-08-18T04:04:44;7.68;;;6.45;;
19883;SDS011;10104;50.732;10.174;2022-08-18T04:07:08;10.88;;;6.13;;
19883;SDS011;10104;50.732;10.174;2022-08-18T04:09:34;8.57;;;6.63;;
19883;SDS011;10104;50.732;10.174;2022-08-18T04:12:01;8.38;;;5.72;;
19883;SDS011;10104;50.732;10.174;2022-08-18T04:14:27;6.80;;;5.90;;
19883;SDS011;10104;50.732;10.174;2022-08-18T04:16:52;7.60;;;6.60;;
19883;SDS011;10104;50.732;10.174;2022-08-18T04:19:14;10.02;;;6.43;;
19883;SDS011;10104;50.732;10.174;2022-08-18T04:21:49;8.32;;;6.82;;
19883;SDS011;10104;50.732;10.174;2022-08-18T04:24:13;7.07;;;6.35;;
19883;SDS011;10104;50.732;10.174;2022-08-18T04:26:36;8.55;;;7.18;;
19883;SDS011;10104;50.732;10.174;2022-08-18T04:28:59;7.63;;;6.55;;
19883;SDS011;10104;50.732;10.174;2022-08-18T04:31:21;13.52;;;6.47;;
19883;SDS011;10104;50.732;10.174;2022-08-18T04:33:44;7.07;;;6.38;;
19883;SDS011;10104;50.732;10.174;2022-08-18T04:36:10;8.75;;;6.57;;
19883;SDS011;10104;50.732;10.174;2022-08-18T04:38:41;10.20;;;6.90;;
19883;SDS011;10104;50.732;10.174;2022-08-18T04:41:03;7.65;;;7.00;;
19883;SDS011;10104;50.732;10.174;2022-08-18T04:43:25;8.45;;;6.47;;
19883;SDS011;10104;50.732;10.174;2022-08-18T04:45:47;8.95;;;6.00;;
19883;SDS011;10104;50.732;10.174;2022-08-18T04:48:10;10.27;;;6.40;;
19883;SDS011;10104;50.732;10.174;2022-08-18T04:50:34;7.00;;;6.20;;
19883;SDS011;10104;50.732;10.174;2022-08-18T04:52:57;7.28;;;6.65;;
19883;SDS011;10104;50.732;10.174;2022-08-18T04:55:37;7.88;;;7.05;;
19883;SDS011;10104;50.732;10.174;2022-08-18T04:57:58;8.07;;;6.93;;
19883;SDS011;10104;50.732;10.174;2022-08-18T05:00:20;9.55;;;7.35;;
19883;SDS011;10104;50.732;10.174;2022-08-18T05:02:42;8.13;;;7.32;;
19883;SDS011;10104;50.732;10.174;2022-08-18T05:05:04;8.57;;;7.63;;
19883;SDS011;10104;50.732;10.174;2022-08-18T05:07:26;9.90;;;7.10;;
19883;SDS011;10104;50.732;10.174;2022-08-18T05:09:48;7.80;;;6.97;;
19883;SDS011;10104;50.732;10.174;2022-08-18T05:12:10;6.97;;;6.38;;
19883;SDS011;10104;50.732;10.174;2022-08-18T05:14:34;8.63;;;6.43;;
19883;SDS011;10104;50.732;10.174;2022-08-18T05:16:59;9.55;;;7.20;;
19883;SDS011;10104;50.732;10.174;2022-08-18T05:19:21;7.45;;;6.75;;
19883;SDS011;10104;50.732;10.174;2022-08-18T05:21:48;8.05;;;6.63;;
19883;SDS011;10104;50.732;10.174;2022-08-18T05:24:12;10.25;;;7.47;;
19883;SDS011;10104;50.732;10.174;2022-08-18T05:26:34;8.35;;;7.53;;
19883;SDS011;10104;50.732;10.174;2022-08-18T05:28:56;7.40;;;6.65;;
19883;SDS011;10104;50.732;10.174;2022-08-18T05:31:38;8.00;;;7.20;;
19883;SDS011;10104;50.732;10.174;2022-08-18T05:34:00;7.95;;;7.25;;
19883;SDS011;10104;50.732;10.174;2022-08-18T05:41:20;9.38;;;7.35;;
19883;SDS011;10104;50.732;10.174;2022-08-18T05:43:50;8.55;;;7.75;;
19883;SDS011;10104;50.732;10.174;2022-08-18T05:46:12;8.35;;;7.55;;
19883;SDS011;10104;50.732;10.174;2022-08-18T05:48:35;8.25;;;7.38;;
19883;SDS011;10104;50.732;10.174;2022-08-18T05:51:15;8.45;;;7.55;;
19883;SDS011;10104;50.732;10.174;2022-08-18T05:53:40;8.30;;;7.45;;
19883;SDS011;10104;50.732;10.174;2022-08-18T05:56:27;9.95;;;7.47;;
19883;SDS011;10104;50.732;10.174;2022-08-18T05:59:07;8.07;;;7.40;;
19883;SDS011;10104;50.732;10.174;2022-08-18T06:01:38;8.90;;;7.55;;
19883;SDS011;10104;50.732;10.174;2022-08-18T06:04:18;8.23;;;7.53;;
19883;SDS011;10104;50.732;10.174;2022-08-18T06:06:46;9.43;;;7.28;;
19883;SDS011;10104;50.732;10.174;2022-08-18T06:09:10;8.90;;;8.05;;
19883;SDS011;10104;50.732;10.174;2022-08-18T06:11:37;10.00;;;7.85;;
19883;SDS011;10104;50.732;10.174;2022-08-18T06:13:59;9.63;;;7.53;;
19883;SDS011;10104;50.732;10.174;2022-08-18T06:18:53;8.57;;;7.78;;
19883;SDS011;10104;50.732;10.174;2022-08-18T06:26:55;8.93;;;7.63;;
19883;SDS011;10104;50.732;10.174;2022-08-18T06:32:14;9.20;;;8.25;;
19883;SDS011;10104;50.732;10.174;2022-08-18T06:35:01;12.52;;;8.20;;
19883;SDS011;10104;50.732;10.174;2022-08-18T06:37:44;8.63;;;7.72;;
19883;SDS011;10104;50.732;10.174;2022-08-18T06:40:46;9.23;;;8.10;;
19883;SDS011;10104;50.732;10.174;2022-08-18T06:43:10;9.57;;;8.43;;
19883;SDS011;10104;50.732;10.174;2022-08-18T06:45:36;11.35;;;8.40;;
19883;SDS011;10104;50.732;10.174;2022-08-18T06:48:04;11.77;;;7.90;;
19883;SDS011;10104;50.732;10.174;2022-08-18T06:50:39;8.38;;;7.65;;
19883;SDS011;10104;50.732;10.174;2022-08-18T06:53:07;7.95;;;7.05;;
19883;SDS011;10104;50.732;10.174;2022-08-18T06:55:48;10.40;;;9.15;;
19883;SDS011;10104;50.732;10.174;2022-08-18T06:58:27;9.90;;;9.00;;
19883;SDS011;10104;50.732;10.174;2022-08-18T07:00:54;10.45;;;9.35;;
19883;SDS011;10104;50.732;10.174;2022-08-18T07:08:45;12.27;;;9.98;;
19883;SDS011;10104;50.732;10.174;2022-08-18T07:11:16;10.15;;;9.13;;
19883;SDS011;10104;50.732;10.174;2022-08-18T07:13:45;11.20;;;9.48;;
19883;SDS011;10104;50.732;10.174;2022-08-18T07:16:34;10.35;;;9.38;;
19883;SDS011;10104;50.732;10.174;2022-08-18T07:19:19;11.73;;;9.60;;
19883;SDS011;10104;50.732;10.174;2022-08-18T07:22:25;11.38;;;10.20;;
19883;SDS011;10104;50.732;10.174;2022-08-18T07:25:10;11.35;;;10.05;;
19883;SDS011;10104;50.732;10.174;2022-08-18T07:28:00;12.88;;;9.40;;
19883;SDS011;10104;50.732;10.174;2022-08-18T07:30:35;10.88;;;8.77;;
19883;SDS011;10104;50.732;10.174;2022-08-18T07:33:23;29.13;;;25.90;;
19883;SDS011;10104;50.732;10.174;2022-08-18T07:35:59;13.48;;;12.25;;
19883;SDS011;10104;50.732;10.174;2022-08-18T07:38:29;12.70;;;11.40;;
19883;SDS011;10104;50.732;10.174;2022-08-18T07:41:51;11.80;;;10.63;;
19883;SDS011;10104;50.732;10.174;2022-08-18T07:44:14;13.57;;;11.95;;
19883;SDS011;10104;50.732;10.174;2022-08-18T07:49:24;19.88;;;16.15;;
19883;SDS011;10104;50.732;10.174;2022-08-18T07:52:11;31.45;;;28.25;;
19883;SDS011;10104;50.732;10.174;2022-08-18T07:58:09;35.60;;;31.73;;
19883;SDS011;10104;50.732;10.174;2022-08-18T08:01:17;31.75;;;28.55;;
19883;SDS011;10104;50.732;10.174;2022-08-18T08:04:15;32.13;;;28.83;;
19883;SDS011;10104;50.732;10.174;2022-08-18T08:06:47;33.13;;;25.83;;
19883;SDS011;10104;50.732;10.174;2022-08-18T08:12:01;28.73;;;25.73;;
19883;SDS011;10104;50.732;10.174;2022-08-18T08:19:58;24.08;;;21.83;;
19883;SDS011;10104;50.732;10.174;2022-08-18T08:22:38;28.30;;;23.83;;
19883;SDS011;10104;50.732;10.174;2022-08-18T08:25:27;27.50;;;24.38;;
19883;SDS011;10104;50.732;10.174;2022-08-18T08:33:52;32.55;;;29.40;;
19883;SDS011;10104;50.732;10.174;2022-08-18T08:36:26;33.05;;;29.63;;
19883;SDS011;10104;50.732;10.174;2022-08-18T08:38:54;38.50;;;32.28;;
19883;SDS011;10104;50.732;10.174;2022-08-18T08:44:10;38.50;;;34.53;;
19883;SDS011;10104;50.732;10.174;2022-08-18T08:46:43;38.53;;;34.65;;
19883;SDS011;10104;50.732;10.174;2022-08-18T08:49:16;38.00;;;34.22;;
19883;SDS011;10104;50.732;10.174;2022-08-18T08:51:50;38.40;;;34.30;;
19883;SDS011;10104;50.732;10.174;2022-08-18T08:54:19;39.35;;;35.15;;
19883;SDS011;10104;50.732;10.174;2022-08-18T08:56:46;39.65;;;35.10;;
19883;SDS011;10104;50.732;10.174;2022-08-18T08:59:11;39.28;;;35.03;;
19883;SDS011;10104;50.732;10.174;2022-08-18T09:07:25;38.08;;;34.13;;
19883;SDS011;10104;50.732;10.174;2022-08-18T09:12:58;35.22;;;31.40;;
19883;SDS011;10104;50.732;10.174;2022-08-18T09:15:31;36.15;;;32.42;;
19883;SDS011;10104;50.732;10.174;2022-08-18T09:21:13;40.60;;;35.25;;
19883;SDS011;10104;50.732;10.174;2022-08-18T09:24:02;41.22;;;37.00;;
19883;SDS011;10104;50.732;10.174;2022-08-18T09:30:39;44.47;;;39.72;;
19883;SDS011;10104;50.732;10.174;2022-08-18T09:35:52;42.90;;;38.30;;
19883;SDS011;10104;50.732;10.174;2022-08-18T09:38:18;42.38;;;38.05;;
19883;SDS011;10104;50.732;10.174;2022-08-18T09:41:10;40.92;;;36.72;;
19883;SDS011;10104;50.732;10.174;2022-08-18T09:51:47;45.83;;;41.20;;
19883;SDS011;10104;50.732;10.174;2022-08-18T09:54:12;47.35;;;42.63;;
19883;SDS011;10104;50.732;10.174;2022-08-18T10:02:01;46.92;;;42.13;;
19883;SDS011;10104;50.732;10.174;2022-08-18T10:04:42;47.58;;;42.88;;
19883;SDS011;10104;50.732;10.174;2022-08-18T10:07:27;46.45;;;41.92;;
19883;SDS011;10104;50.732;10.174;2022-08-18T10:18:57;46.10;;;41.33;;
19883;SDS011;10104;50.732;10.174;2022-08-18T10:24:16;47.42;;;42.50;;
19883;SDS011;10104;50.732;10.174;2022-08-18T10:26:58;50.17;;;44.95;;
19883;SDS011;10104;50.732;10.174;2022-08-18T10:39:47;46.15;;;41.53;;
19883;SDS011;10104;50.732;10.174;2022-08-18T10:45:33;43.45;;;38.97;;
19883;SDS011;10104;50.732;10.174;2022-08-18T10:48:07;46.22;;;40.60;;
19883;SDS011;10104;50.732;10.174;2022-08-18T10:50:40;45.30;;;40.88;;
19883;SDS011;10104;50.732;10.174;2022-08-18T10:53:16;43.20;;;38.55;;
19883;SDS011;10104;50.732;10.174;2022-08-18T10:56:08;42.65;;;38.17;;
19883;SDS011;10104;50.732;10.174;2022-08-18T11:04:52;43.72;;;39.55;;
19883;SDS011;10104;50.732;10.174;2022-08-18T11:07:35;43.42;;;39.15;;
19883;SDS011;10104;50.732;10.174;2022-08-18T11:10:19;44.53;;;40.05;;
19883;SDS011;10104;50.732;10.174;2022-08-18T11:24:26;44.22;;;40.00;;
19883;SDS011;10104;50.732;10.174;2022-08-18T11:29:16;41.60;;;37.72;;
19883;SDS011;10104;50.732;10.174;2022-08-18T11:43:17;40.40;;;36.22;;
19883;SDS011;10104;50.732;10.174;2022-08-18T11:56:03;41.90;;;37.75;;
19883;SDS011;10104;50.732;10.174;2022-08-18T12:02:18;40.65;;;36.47;;
19883;SDS011;10104;50.732;10.174;2022-08-18T12:04:41;38.35;;;34.78;;
19883;SDS011;10104;50.732;10.174;2022-08-18T12:07:07;39.67;;;36.10;;
19883;SDS011;10104;50.732;10.174;2022-08-18T12:09:45;40.92;;;36.83;;
19883;SDS011;10104;50.732;10.174;2022-08-18T12:12:45;37.97;;;34.40;;
19883;SDS011;10104;50.732;10.174;2022-08-18T12:15:31;40.63;;;36.45;;
19883;SDS011;10104;50.732;10.174;2022-08-18T12:18:04;38.28;;;34.58;;
19883;SDS011;10104;50.732;10.174;2022-08-18T12:20:26;38.40;;;34.72;;
19883;SDS011;10104;50.732;10.174;2022-08-18T12:22:49;38.20;;;34.58;;
19883;SDS011;10104;50.732;10.174;2022-08-18T12:25:13;34.97;;;31.67;;
19883;SDS011;10104;50.732;10.174;2022-08-18T12:27:45;36.60;;;33.08;;
19883;SDS011;10104;50.732;10.174;2022-08-18T12:30:08;34.08;;;30.77;;
19883;SDS011;10104;50.732;10.174;2022-08-18T12:32:37;33.90;;;30.83;;
19883;SDS011;10104;50.732;10.174;2022-08-18T12:35:10;33.58;;;30.48;;
19883;SDS011;10104;50.732;10.174;2022-08-18T12:37:32;35.45;;;32.00;;
19883;SDS011;10104;50.732;10.174;2022-08-18T12:40:13;34.05;;;31.13;;
19883;SDS011;10104;50.732;10.174;2022-08-18T12:42:35;34.00;;;30.85;;
19883;SDS011;10104;50.732;10.174;2022-08-18T12:44:57;37.17;;;33.70;;
19883;SDS011;10104;50.732;10.174;2022-08-18T12:47:19;38.38;;;34.83;;
19883;SDS011;10104;50.732;10.174;2022-08-18T12:49:43;38.47;;;34.70;;
19883;SDS011;10104;50.732;10.174;2022-08-18T12:52:05;38.72;;;35.22;;
19883;SDS011;10104;50.732;10.174;2022-08-18T12:54:32;39.95;;;36.17;;
19883;SDS011;10104;50.732;10.174;2022-08-18T12:56:56;41.13;;;37.13;;
19883;SDS011;10104;50.732;10.174;2022-08-18T12:59:18;37.42;;;33.83;;
19883;SDS011;10104;50.732;10.174;2022-08-18T13:01:40;37.28;;;33.92;;
19883;SDS011;10104;50.732;10.174;2022-08-18T13:04:02;34.22;;;31.02;;
19883;SDS011;10104;50.732;10.174;2022-08-18T13:06:35;36.78;;;33.35;;
19883;SDS011;10104;50.732;10.174;2022-08-18T13:09:05;38.20;;;34.50;;
19883;SDS011;10104;50.732;10.174;2022-08-18T13:11:47;37.90;;;34.38;;
19883;SDS011;10104;50.732;10.174;2022-08-18T13:14:10;36.15;;;32.75;;
19883;SDS011;10104;50.732;10.174;2022-08-18T13:16:33;36.75;;;33.35;;
19883;SDS011;10104;50.732;10.174;2022-08-18T13:19:14;34.05;;;30.40;;
19883;SDS011;10104;50.732;10.174;2022-08-18T13:21:36;32.92;;;29.95;;
19883;SDS011;10104;50.732;10.174;2022-08-18T13:24:03;31.10;;;28.10;;
19883;SDS011;10104;50.732;10.174;2022-08-18T13:26:30;30.33;;;27.55;;
19883;SDS011;10104;50.732;10.174;2022-08-18T13:28:56;28.63;;;25.83;;
19883;SDS011;10104;50.732;10.174;2022-08-18T13:31:18;36.40;;;32.88;;
19883;SDS011;10104;50.732;10.174;2022-08-18T13:33:43;35.67;;;32.38;;
19883;SDS011;10104;50.732;10.174;2022-08-18T13:36:20;27.60;;;25.13;;
19883;SDS011;10104;50.732;10.174;2022-08-18T13:38:42;30.80;;;27.77;;
19883;SDS011;10104;50.732;10.174;2022-08-18T13:41:04;33.55;;;30.35;;
19883;SDS011;10104;50.732;10.174;2022-08-18T13:43:30;30.50;;;27.80;;
19883;SDS011;10104;50.732;10.174;2022-08-18T13:45:54;28.63;;;26.17;;
19883;SDS011;10104;50.732;10.174;2022-08-18T13:48:16;32.28;;;29.35;;
19883;SDS011;10104;50.732;10.174;2022-08-18T13:50:38;32.85;;;30.00;;
19883;SDS011;10104;50.732;10.174;2022-08-18T13:53:01;34.05;;;30.85;;
19883;SDS011;10104;50.732;10.174;2022-08-18T13:55:25;33.95;;;30.95;;
19883;SDS011;10104;50.732;10.174;2022-08-18T13:57:49;31.60;;;28.90;;
19883;SDS011;10104;50.732;10.174;2022-08-18T14:00:17;28.83;;;26.15;;
19883;SDS011;10104;50.732;10.174;2022-08-18T14:02:50;31.02;;;28.33;;
19883;SDS011;10104;50.732;10.174;2022-08-18T14:05:16;31.75;;;28.95;;
19883;SDS011;10104;50.732;10.174;2022-08-18T14:07:40;31.40;;;28.70;;
19883;SDS011;10104;50.732;10.174;2022-08-18T14:10:04;34.05;;;31.15;;
19883;SDS011;10104;50.732;10.174;2022-08-18T14:12:34;26.52;;;24.05;;
19883;SDS011;10104;50.732;10.174;2022-08-18T14:15:00;24.95;;;22.65;;
19883;SDS011;10104;50.732;10.174;2022-08-18T14:17:22;25.80;;;23.50;;
19883;SDS011;10104;50.732;10.174;2022-08-18T14:19:45;27.13;;;24.73;;
19883;SDS011;10104;50.732;10.174;2022-08-18T14:22:30;26.23;;;23.98;;
19883;SDS011;10104;50.732;10.174;2022-08-18T14:25:11;25.63;;;23.52;;
19883;SDS011;10104;50.732;10.174;2022-08-18T14:27:53;25.25;;;22.88;;
19883;SDS011;10104;50.732;10.174;2022-08-18T14:30:17;24.00;;;21.90;;
19883;SDS011;10104;50.732;10.174;2022-08-18T14:32:40;24.58;;;22.38;;
19883;SDS011;10104;50.732;10.174;2022-08-18T14:35:10;21.33;;;19.23;;
19883;SDS011;10104;50.732;10.174;2022-08-18T14:37:54;20.13;;;18.30;;
19883;SDS011;10104;50.732;10.174;2022-08-18T14:40:17;20.00;;;18.23;;
19883;SDS011;10104;50.732;10.174;2022-08-18T14:42:40;20.90;;;18.95;;
19883;SDS011;10104;50.732;10.174;2022-08-18T14:45:15;19.80;;;18.20;;
19883;SDS011;10104;50.732;10.174;2022-08-18T14:48:00;22.35;;;20.35;;
19883;SDS011;10104;50.732;10.174;2022-08-18T14:51:04;22.73;;;20.52;;
19883;SDS011;10104;50.732;10.174;2022-08-18T14:53:31;21.88;;;19.75;;
19883;SDS011;10104;50.732;10.174;2022-08-18T14:56:15;21.60;;;19.75;;
19883;SDS011;10104;50.732;10.174;2022-08-18T14:58:48;19.38;;;17.67;;
19883;SDS011;10104;50.732;10.174;2022-08-18T15:01:11;20.38;;;18.25;;
19883;SDS011;10104;50.732;10.174;2022-08-18T15:03:36;20.77;;;18.98;;
19883;SDS011;10104;50.732;10.174;2022-08-18T15:05:59;19.88;;;18.17;;
19883;SDS011;10104;50.732;10.174;2022-08-18T15:08:25;20.45;;;18.65;;
19883;SDS011;10104;50.732;10.174;2022-08-18T15:10:47;19.63;;;17.88;;
19883;SDS011;10104;50.732;10.174;2022-08-18T15:13:11;18.85;;;16.95;;
19883;SDS011;10104;50.732;10.174;2022-08-18T15:15:33;19.00;;;17.30;;
19883;SDS011;10104;50.732;10.174;2022-08-18T15:18:12;17.35;;;15.75;;
19883;SDS011;10104;50.732;10.174;2022-08-18T15:20:33;16.20;;;14.80;;
19883;SDS011;10104;50.732;10.174;2022-08-18T15:23:15;17.55;;;15.95;;
19883;SDS011;10104;50.732;10.174;2022-08-18T15:25:55;19.67;;;17.98;;
19883;SDS011;10104;50.732;10.174;2022-08-18T15:28:20;24.70;;;22.23;;
19883;SDS011;10104;50.732;10.174;2022-08-18T15:30:46;21.65;;;19.75;;
19883;SDS011;10104;50.732;10.174;2022-08-18T15:33:11;23.05;;;20.95;;
19883;SDS011;10104;50.732;10.174;2022-08-18T15:35:36;24.92;;;22.73;;
19883;SDS011;10104;50.732;10.174;2022-08-18T15:38:04;24.95;;;22.73;;
19883;SDS011;10104;50.732;10.174;2022-08-18T15:40:28;20.67;;;18.60;;
19883;SDS011;10104;50.732;10.174;2022-08-18T15:42:57;23.23;;;21.13;;
19883;SDS011;10104;50.732;10.174;2022-08-18T15:45:25;23.20;;;21.10;;
19883;SDS011;10104;50.732;10.174;2022-08-18T15:47:55;22.15;;;19.95;;
19883;SDS011;10104;50.732;10.174;2022-08-18T15:50:17;22.45;;;20.45;;
19883;SDS011;10104;50.732;10.174;2022-08-18T15:55:29;20.50;;;18.70;;
19883;SDS011;10104;50.732;10.174;2022-08-18T15:57:57;22.05;;;19.83;;
19883;SDS011;10104;50.732;10.174;2022-08-18T16:00:21;23.25;;;21.05;;
19883;SDS011;10104;50.732;10.174;2022-08-18T16:02:50;22.17;;;20.08;;
19883;SDS011;10104;50.732;10.174;2022-08-18T16:05:13;20.80;;;18.75;;
19883;SDS011;10104;50.732;10.174;2022-08-18T16:07:35;21.70;;;19.70;;
19883;SDS011;10104;50.732;10.174;2022-08-18T16:10:05;22.17;;;20.17;;
19883;SDS011;10104;50.732;10.174;2022-08-18T16:12:27;23.15;;;20.95;;
19883;SDS011;10104;50.732;10.174;2022-08-18T16:14:48;24.15;;;21.67;;
19883;SDS011;10104;50.732;10.174;2022-08-18T16:17:12;24.30;;;21.92;;
19883;SDS011;10104;50.732;10.174;2022-08-18T16:19:44;20.83;;;18.98;;
19883;SDS011;10104;50.732;10.174;2022-08-18T16:22:06;25.23;;;23.02;;
19883;SDS011;10104;50.732;10.174;2022-08-18T16:24:27;27.20;;;24.60;;
19883;SDS011;10104;50.732;10.174;2022-08-18T16:26:49;28.73;;;26.13;;
19883;SDS011;10104;50.732;10.174;2022-08-18T16:29:12;28.77;;;26.08;;
19883;SDS011;10104;50.732;10.174;2022-08-18T16:31:33;26.80;;;24.30;;
19883;SDS011;10104;50.732;10.174;2022-08-18T16:33:55;27.10;;;24.50;;
19883;SDS011;10104;50.732;10.174;2022-08-18T16:36:18;28.10;;;25.50;;
19883;SDS011;10104;50.732;10.174;2022-08-18T16:38:39;29.25;;;26.45;;
19883;SDS011;10104;50.732;10.174;2022-08-18T16:41:08;28.63;;;25.75;;
19883;SDS011;10104;50.732;10.174;2022-08-18T16:43:35;28.95;;;26.15;;
19883;SDS011;10104;50.732;10.174;2022-08-18T16:45:57;30.27;;;27.23;;
19883;SDS011;10104;50.732;10.174;2022-08-18T16:48:20;28.80;;;25.95;;
19883;SDS011;10104;50.732;10.174;2022-08-18T16:50:41;29.02;;;26.23;;
19883;SDS011;10104;50.732;10.174;2022-08-18T16:53:05;27.20;;;24.50;;
19883;SDS011;10104;50.732;10.174;2022-08-18T16:55:26;27.90;;;25.25;;
19883;SDS011;10104;50.732;10.174;2022-08-18T16:57:48;27.38;;;24.55;;
19883;SDS011;10104;50.732;10.174;2022-08-18T17:00:33;25.75;;;23.15;;
19883;SDS011;10104;50.732;10.174;2022-08-18T17:03:15;25.30;;;22.80;;